Time;durP1;ratioP1;P1;durP2;ratioP2;P2;SDS_P1;SDS_P2;PMS_P1;PMS_P2;Temp;Humidity;BMP_temperature;BMP_pressure;BME280_temperature;BME280_humidity;BME280_pressure;Samples;Min_cycle;Max_cycle;Signal;HPM_P1;HPM_P2
2022/11/08 00:02:23;;;;;;;8.20;7.30;;;;;;;;;;5050866;28;20717;-78
2022/11/08 00:04:51;;;;;;;38.77;9.23;;;;;;;;;;5050600;28;20209;-78
2022/11/08 00:15:32;;;;;;;11.73;6.00;;;;;;;;;;5050249;28;20216;-78
2022/11/08 00:17:58;;;;;;;6.63;5.40;;;;;;;;;;5036869;28;20270;-78
2022/11/08 00:20:27;;;;;;;6.13;5.63;;;;;;;;;;5050297;28;20222;-78
2022/11/08 00:22:53;;;;;;;5.93;5.30;;;;;;;;;;5050955;28;20206;-78
2022/11/08 00:25:20;;;;;;;6.87;6.27;;;;;;;;;;5050277;28;20264;-78
2022/11/08 00:27:47;;;;;;;7.33;5.77;;;;;;;;;;5050130;28;20213;-78
2022/11/08 00:30:14;;;;;;;6.73;6.03;;;;;;;;;;5050369;28;20198;-78
2022/11/08 00:32:40;;;;;;;7.57;5.37;;;;;;;;;;5050487;28;20681;-79
2022/11/08 00:35:08;;;;;;;7.37;5.77;;;;;;;;;;5049988;28;20206;-79
2022/11/08 00:37:36;;;;;;;9.33;5.73;;;;;;;;;;5050518;28;20214;-79
2022/11/08 00:40:03;;;;;;;5.87;5.17;;;;;;;;;;5050223;28;20275;-78
2022/11/08 00:42:30;;;;;;;7.50;5.90;;;;;;;;;;5049891;28;20201;-79
2022/11/08 00:44:56;;;;;;;6.87;6.17;;;;;;;;;;5052750;28;20210;-79
2022/11/08 00:47:23;;;;;;;7.07;5.63;;;;;;;;;;5054510;28;20198;-78
2022/11/08 00:49:50;;;;;;;6.80;6.10;;;;;;;;;;5054141;28;20210;-78
2022/11/08 00:52:17;;;;;;;14.07;6.23;;;;;;;;;;5053570;28;20201;-79
2022/11/08 00:54:45;;;;;;;7.37;5.90;;;;;;;;;;5054098;28;20233;-78
2022/11/08 00:57:12;;;;;;;6.47;5.73;;;;;;;;;;5053779;28;20198;-78
2022/11/08 00:59:39;;;;;;;6.90;5.80;;;;;;;;;;5053599;28;20198;-78
2022/11/08 01:02:05;;;;;;;8.10;6.40;;;;;;;;;;5054299;28;20206;-78
2022/11/08 01:04:32;;;;;;;6.83;5.97;;;;;;;;;;5053796;28;20217;-78
2022/11/08 01:06:59;;;;;;;6.57;5.90;;;;;;;;;;5053943;28;20201;-78
2022/11/08 01:09:25;;;;;;;6.40;5.50;;;;;;;;;;5053667;28;20609;-78
2022/11/08 01:11:54;;;;;;;5.93;5.33;;;;;;;;;;5053270;28;20206;-78
2022/11/08 01:14:21;;;;;;;6.37;5.10;;;;;;;;;;5053543;28;20205;-78
2022/11/08 01:16:47;;;;;;;6.43;5.60;;;;;;;;;;5053538;28;20217;-78
2022/11/08 01:19:14;;;;;;;7.17;6.57;;;;;;;;;;5053779;28;20202;-79
2022/11/08 01:21:41;;;;;;;7.87;5.70;;;;;;;;;;5053306;28;20222;-79
2022/11/08 01:24:08;;;;;;;8.27;6.00;;;;;;;;;;5052969;28;20646;-79
2022/11/08 01:26:34;;;;;;;6.73;5.50;;;;;;;;;;5053436;28;20206;-79
2022/11/08 01:29:03;;;;;;;8.23;5.57;;;;;;;;;;5053606;28;20711;-78
2022/11/08 01:31:31;;;;;;;6.90;6.00;;;;;;;;;;5052851;28;20202;-79
2022/11/08 01:33:59;;;;;;;6.40;5.60;;;;;;;;;;5053317;28;20213;-78
2022/11/08 01:36:27;;;;;;;6.97;6.30;;;;;;;;;;5053027;28;20258;-79
2022/11/08 01:38:54;;;;;;;9.53;6.33;;;;;;;;;;5052919;28;20198;-79
2022/11/08 01:41:25;;;;;;;5.27;4.77;;;;;;;;;;5052711;28;20712;-79
2022/11/08 01:43:52;;;;;;;6.43;5.83;;;;;;;;;;5053543;28;20198;-79
2022/11/08 01:46:41;;;;;;;6.97;5.10;;;;;;;;;;5053170;28;20202;-79
2022/11/08 01:49:33;;;;;;;6.03;5.43;;;;;;;;;;5039810;28;20210;-79
2022/11/08 01:52:08;;;;;;;6.40;5.37;;;;;;;;;;5052685;28;20213;-79
2022/11/08 01:54:38;;;;;;;6.53;5.93;;;;;;;;;;5053366;28;20225;-79
2022/11/08 01:57:08;;;;;;;6.30;4.93;;;;;;;;;;5052101;28;20696;-79
2022/11/08 01:59:35;;;;;;;9.00;5.77;;;;;;;;;;5052580;28;20638;-79
2022/11/08 02:02:04;;;;;;;5.90;5.30;;;;;;;;;;5052876;28;20229;-79
2022/11/08 02:04:31;;;;;;;7.97;6.67;;;;;;;;;;5052987;28;20580;-79
2022/11/08 02:06:58;;;;;;;9.07;7.00;;;;;;;;;;5052795;28;20677;-78
2022/11/08 02:09:25;;;;;;;10.73;7.87;;;;;;;;;;5052324;28;20202;-79
2022/11/08 02:11:52;;;;;;;13.30;9.03;;;;;;;;;;5052455;28;20696;-78
2022/11/08 02:14:18;;;;;;;11.30;7.67;;;;;;;;;;5052506;28;20626;-79
2022/11/08 02:16:45;;;;;;;10.50;8.93;;;;;;;;;;5052809;28;20209;-79
2022/11/08 02:19:18;;;;;;;11.20;7.83;;;;;;;;;;5052254;28;20256;-79
2022/11/08 02:21:48;;;;;;;10.30;8.70;;;;;;;;;;5052411;28;20279;-79
2022/11/08 02:24:17;;;;;;;8.97;7.87;;;;;;;;;;5052730;28;20205;-79
2022/11/08 02:26:44;;;;;;;11.17;6.40;;;;;;;;;;5052226;28;20685;-79
2022/11/08 02:29:26;;;;;;;7.03;6.33;;;;;;;;;;5052125;28;20209;-78
2022/11/08 02:31:53;;;;;;;8.23;6.53;;;;;;;;;;5052335;28;20201;-78
2022/11/08 02:34:21;;;;;;;10.00;7.30;;;;;;;;;;5052191;28;20206;-79
2022/11/08 02:36:48;;;;;;;8.33;5.73;;;;;;;;;;5052201;28;20297;-79
2022/11/08 02:39:16;;;;;;;8.70;7.17;;;;;;;;;;5051546;28;20233;-79
2022/11/08 02:41:43;;;;;;;7.60;6.63;;;;;;;;;;5052313;28;20724;-79
2022/11/08 02:44:10;;;;;;;8.40;6.90;;;;;;;;;;5052126;28;20206;-79
2022/11/08 02:46:37;;;;;;;10.33;6.27;;;;;;;;;;5051772;28;20260;-79
2022/11/08 02:49:03;;;;;;;7.60;6.80;;;;;;;;;;5051938;28;20202;-79
2022/11/08 02:51:30;;;;;;;7.90;6.97;;;;;;;;;;5051850;28;20216;-79
2022/11/08 02:53:57;;;;;;;10.07;6.07;;;;;;;;;;5051542;28;20233;-79
2022/11/08 02:56:25;;;;;;;7.73;6.00;;;;;;;;;;5051714;28;20209;-79
2022/11/08 02:58:52;;;;;;;8.27;7.47;;;;;;;;;;5051929;28;20206;-79
2022/11/08 03:01:19;;;;;;;7.37;6.17;;;;;;;;;;5051730;28;20221;-79
2022/11/08 03:03:45;;;;;;;6.97;6.27;;;;;;;;;;5051569;28;20206;-79
2022/11/08 03:06:12;;;;;;;8.53;6.53;;;;;;;;;;5051624;28;20209;-79
2022/11/08 03:08:39;;;;;;;7.47;6.70;;;;;;;;;;5051464;28;20198;-79
2022/11/08 03:11:06;;;;;;;10.40;6.53;;;;;;;;;;5051379;28;20197;-79
2022/11/08 03:13:34;;;;;;;8.17;6.50;;;;;;;;;;5051606;28;20268;-79
2022/11/08 03:16:02;;;;;;;9.13;7.40;;;;;;;;;;5051414;28;20640;-79
2022/11/08 03:18:29;;;;;;;11.17;7.37;;;;;;;;;;5051291;28;20836;-79
2022/11/08 03:20:56;;;;;;;8.07;7.03;;;;;;;;;;5051027;28;20617;-79
2022/11/08 03:23:23;;;;;;;8.23;6.07;;;;;;;;;;5051266;28;20206;-79
2022/11/08 03:25:49;;;;;;;6.63;5.93;;;;;;;;;;5051169;28;20268;-79
2022/11/08 03:28:16;;;;;;;7.87;6.27;;;;;;;;;;5051380;28;20194;-79
2022/11/08 03:30:44;;;;;;;7.57;6.87;;;;;;;;;;5050953;28;20206;-79
2022/11/08 03:33:11;;;;;;;8.33;6.00;;;;;;;;;;5051174;28;20256;-79
2022/11/08 03:35:38;;;;;;;10.07;7.10;;;;;;;;;;5050511;28;20206;-79
2022/11/08 03:38:05;;;;;;;7.70;6.90;;;;;;;;;;5051366;28;20197;-79
2022/11/08 03:40:32;;;;;;;13.20;9.83;;;;;;;;;;5050969;28;20201;-79
2022/11/08 03:42:58;;;;;;;19.17;14.97;;;;;;;;;;5050766;28;20293;-79
2022/11/08 03:45:25;;;;;;;26.87;20.47;;;;;;;;;;5050915;28;20209;-79
2022/11/08 03:47:53;;;;;;;14.50;10.17;;;;;;;;;;5051071;28;20205;-79
2022/11/08 03:50:20;;;;;;;12.67;8.10;;;;;;;;;;5050151;28;20567;-79
2022/11/08 03:52:48;;;;;;;8.53;7.20;;;;;;;;;;5050626;28;20216;-79
2022/11/08 03:55:15;;;;;;;10.17;6.17;;;;;;;;;;5050807;28;20651;-79
2022/11/08 03:57:43;;;;;;;7.00;6.30;;;;;;;;;;5050888;28;20206;-79
2022/11/08 04:00:11;;;;;;;6.73;5.80;;;;;;;;;;5051014;28;20224;-79
2022/11/08 04:02:38;;;;;;;7.27;6.00;;;;;;;;;;5050057;28;20230;-79
2022/11/08 04:05:09;;;;;;;10.40;7.17;;;;;;;;;;5051031;28;20681;-79
2022/11/08 04:07:35;;;;;;;7.77;5.60;;;;;;;;;;5050491;28;20209;-79
2022/11/08 04:10:02;;;;;;;9.03;5.63;;;;;;;;;;5050331;28;20264;-79
2022/11/08 04:15:14;;;;;;;6.87;5.80;;;;;;;;;;5050165;28;20702;-79
2022/11/08 04:23:11;;;;;;;8.47;6.93;;;;;;;;;;5037452;28;20603;-79
2022/11/08 04:25:39;;;;;;;8.80;6.43;;;;;;;;;;5049006;28;20205;-80
2022/11/08 04:28:05;;;;;;;11.93;7.70;;;;;;;;;;5048927;28;20210;-79
2022/11/08 04:30:33;;;;;;;8.77;7.00;;;;;;;;;;5048980;28;20202;-78
2022/11/08 04:33:00;;;;;;;8.20;7.37;;;;;;;;;;5049080;28;20205;-79
2022/11/08 04:35:28;;;;;;;8.27;6.47;;;;;;;;;;5049537;28;20202;-79
2022/11/08 04:37:57;;;;;;;11.10;7.17;;;;;;;;;;5046848;28;20201;-78
2022/11/08 04:40:24;;;;;;;7.90;7.07;;;;;;;;;;5050374;28;20229;-78
2022/11/08 04:42:51;;;;;;;10.57;8.00;;;;;;;;;;5050178;28;20727;-79
2022/11/08 04:45:18;;;;;;;12.73;9.13;;;;;;;;;;5050282;28;20205;-80
2022/11/08 04:47:46;;;;;;;10.47;8.33;;;;;;;;;;5050604;28;20233;-78
2022/11/08 04:50:12;;;;;;;12.53;7.67;;;;;;;;;;5049754;28;20679;-79
2022/11/08 04:52:41;;;;;;;11.07;8.30;;;;;;;;;;5048041;28;20685;-79
2022/11/08 04:55:09;;;;;;;9.23;7.87;;;;;;;;;;5049011;28;20257;-79
2022/11/08 04:57:36;;;;;;;9.70;7.87;;;;;;;;;;5049378;28;20202;-79
2022/11/08 05:00:03;;;;;;;10.00;6.73;;;;;;;;;;5049237;28;20739;-79
2022/11/08 05:02:30;;;;;;;7.97;7.20;;;;;;;;;;5049230;28;20264;-79
2022/11/08 05:04:57;;;;;;;9.30;7.87;;;;;;;;;;5050201;28;20267;-78
2022/11/08 05:07:23;;;;;;;9.27;7.03;;;;;;;;;;5050023;28;20221;-79
2022/11/08 05:09:51;;;;;;;11.10;7.33;;;;;;;;;;5049632;28;20750;-79
2022/11/08 05:12:18;;;;;;;12.93;7.97;;;;;;;;;;5048966;28;20676;-78
2022/11/08 05:14:45;;;;;;;9.23;7.47;;;;;;;;;;5050059;28;20210;-77
2022/11/08 05:17:12;;;;;;;6.87;6.23;;;;;;;;;;5050061;28;20202;-78
2022/11/08 05:25:11;;;;;;;16.40;8.97;;;;;;;;;;5049709;28;20263;-77
2022/11/08 05:27:41;;;;;;;15.40;7.57;;;;;;;;;;5041602;28;20206;-78
2022/11/08 05:30:08;;;;;;;10.53;7.83;;;;;;;;;;5043035;28;20293;-78
2022/11/08 05:32:35;;;;;;;17.50;8.73;;;;;;;;;;5052754;28;20259;-78
2022/11/08 05:35:02;;;;;;;11.30;8.17;;;;;;;;;;5053188;28;20213;-78
2022/11/08 05:37:28;;;;;;;9.23;7.43;;;;;;;;;;5052301;28;20240;-79
2022/11/08 05:39:55;;;;;;;9.87;8.83;;;;;;;;;;5051258;28;20198;-78
2022/11/08 05:42:23;;;;;;;16.63;11.93;;;;;;;;;;5051045;28;20230;-78
2022/11/08 05:44:50;;;;;;;19.37;15.83;;;;;;;;;;5050362;28;20209;-79
2022/11/08 05:47:17;;;;;;;29.17;18.67;;;;;;;;;;5051120;28;20205;-78
2022/11/08 05:49:44;;;;;;;24.60;16.03;;;;;;;;;;5051150;28;20213;-78
2022/11/08 05:52:10;;;;;;;18.33;12.73;;;;;;;;;;5052010;28;20673;-78
2022/11/08 05:54:37;;;;;;;17.77;12.27;;;;;;;;;;5052612;28;20237;-78
2022/11/08 05:57:04;;;;;;;16.33;13.30;;;;;;;;;;5052468;28;20197;-78
2022/11/08 05:59:32;;;;;;;12.30;10.00;;;;;;;;;;5052352;28;20194;-78
2022/11/08 06:01:59;;;;;;;16.83;11.57;;;;;;;;;;5052633;28;20287;-78
2022/11/08 06:04:26;;;;;;;13.80;11.53;;;;;;;;;;5052377;28;20202;-78
2022/11/08 06:06:52;;;;;;;11.23;9.37;;;;;;;;;;5052722;28;20263;-78
2022/11/08 06:09:19;;;;;;;10.83;8.40;;;;;;;;;;5052598;28;20656;-78
2022/11/08 06:11:46;;;;;;;12.13;8.50;;;;;;;;;;5052482;28;20695;-78
2022/11/08 06:14:12;;;;;;;15.37;9.00;;;;;;;;;;5052189;28;20205;-79
2022/11/08 06:16:40;;;;;;;10.47;7.90;;;;;;;;;;5052158;28;20334;-78
2022/11/08 06:19:07;;;;;;;10.07;7.90;;;;;;;;;;5052502;28;20202;-79
2022/11/08 06:21:34;;;;;;;13.53;8.03;;;;;;;;;;5052217;28;20659;-78
2022/11/08 06:24:04;;;;;;;12.53;9.13;;;;;;;;;;5051971;28;20202;-78
2022/11/08 06:26:30;;;;;;;15.07;11.60;;;;;;;;;;5038348;28;20206;-79
2022/11/08 06:28:57;;;;;;;13.23;11.30;;;;;;;;;;5052609;28;20214;-78
2022/11/08 06:31:24;;;;;;;13.23;10.73;;;;;;;;;;5052036;28;20232;-78
2022/11/08 06:33:52;;;;;;;81.10;39.13;;;;;;;;;;5052629;28;20206;-78
2022/11/08 06:36:20;;;;;;;82.27;39.93;;;;;;;;;;5051775;28;20654;-78
2022/11/08 06:38:47;;;;;;;60.07;34.27;;;;;;;;;;5052610;28;20198;-78
2022/11/08 06:41:17;;;;;;;43.87;27.70;;;;;;;;;;5050486;28;20213;-79
2022/11/08 06:43:44;;;;;;;34.80;17.53;;;;;;;;;;5043345;28;20206;-78
2022/11/08 06:46:10;;;;;;;20.23;15.10;;;;;;;;;;5051720;28;20205;-78
2022/11/08 06:48:37;;;;;;;13.80;11.00;;;;;;;;;;5052058;28;20202;-78
2022/11/08 06:51:06;;;;;;;24.00;19.17;;;;;;;;;;5052307;28;20205;-78
2022/11/08 06:53:33;;;;;;;11.23;9.17;;;;;;;;;;5051524;28;20240;-78
2022/11/08 06:56:00;;;;;;;12.70;7.60;;;;;;;;;;5051131;28;20216;-78
2022/11/08 06:58:26;;;;;;;9.50;8.50;;;;;;;;;;5051762;28;20197;-78
2022/11/08 07:00:53;;;;;;;17.17;11.13;;;;;;;;;;5051349;28;20201;-79
2022/11/08 07:03:20;;;;;;;10.90;8.73;;;;;;;;;;5051364;28;20236;-78
2022/11/08 07:05:47;;;;;;;17.17;9.40;;;;;;;;;;5051606;28;20213;-78
2022/11/08 07:08:15;;;;;;;10.10;9.10;;;;;;;;;;5051244;28;20206;-78
2022/11/08 07:10:41;;;;;;;12.13;9.80;;;;;;;;;;5051252;28;20243;-78
2022/11/08 07:13:11;;;;;;;13.30;9.70;;;;;;;;;;5050781;28;20215;-78
2022/11/08 07:15:38;;;;;;;16.50;9.83;;;;;;;;;;5050874;28;20206;-78
2022/11/08 07:18:06;;;;;;;10.83;9.33;;;;;;;;;;5051349;28;20205;-78
2022/11/08 07:20:33;;;;;;;13.60;9.33;;;;;;;;;;5051080;28;20205;-78
2022/11/08 07:23:00;;;;;;;13.13;9.03;;;;;;;;;;5050654;28;20236;-78
2022/11/08 07:25:29;;;;;;;15.43;9.40;;;;;;;;;;5051035;28;20207;-78
2022/11/08 07:27:56;;;;;;;16.87;10.90;;;;;;;;;;5051072;28;20205;-78
2022/11/08 07:30:23;;;;;;;11.90;10.17;;;;;;;;;;5051254;28;20201;-78
2022/11/08 07:32:49;;;;;;;16.97;10.67;;;;;;;;;;5051252;28;20211;-78
2022/11/08 07:35:16;;;;;;;16.90;10.43;;;;;;;;;;5050470;28;20206;-79
2022/11/08 07:37:43;;;;;;;10.47;9.20;;;;;;;;;;5050549;28;20202;-78
2022/11/08 07:40:11;;;;;;;9.73;8.77;;;;;;;;;;5050802;28;20198;-78
2022/11/08 07:42:40;;;;;;;10.03;8.80;;;;;;;;;;5050124;28;20716;-78
2022/11/08 07:45:08;;;;;;;12.70;8.73;;;;;;;;;;5050311;28;20241;-78
2022/11/08 07:47:35;;;;;;;11.67;9.47;;;;;;;;;;5050650;28;20690;-78
2022/11/08 07:50:02;;;;;;;11.20;9.77;;;;;;;;;;5050335;28;20691;-78
2022/11/08 07:52:28;;;;;;;11.33;9.57;;;;;;;;;;5051034;28;20208;-79
2022/11/08 07:54:55;;;;;;;14.33;9.47;;;;;;;;;;5049565;28;20240;-80
2022/11/08 07:57:22;;;;;;;14.07;9.97;;;;;;;;;;5050593;28;20624;-78
2022/11/08 07:59:50;;;;;;;16.33;9.63;;;;;;;;;;5050631;28;20209;-78
2022/11/08 08:02:17;;;;;;;13.13;9.73;;;;;;;;;;5050329;28;20226;-78
2022/11/08 08:04:43;;;;;;;12.67;9.27;;;;;;;;;;5050382;28;21032;-78
2022/11/08 08:07:11;;;;;;;12.90;9.67;;;;;;;;;;5050334;28;20210;-78
2022/11/08 08:09:38;;;;;;;10.77;9.57;;;;;;;;;;5050308;28;20205;-78
2022/11/08 08:12:07;;;;;;;15.87;11.23;;;;;;;;;;5049987;28;20221;-78
2022/11/08 08:14:33;;;;;;;13.60;9.77;;;;;;;;;;5040122;28;20229;-79
2022/11/08 08:17:01;;;;;;;11.97;9.13;;;;;;;;;;5049896;28;20201;-78
2022/11/08 08:19:28;;;;;;;11.50;8.30;;;;;;;;;;5050385;28;20596;-78
2022/11/08 08:21:55;;;;;;;16.97;9.70;;;;;;;;;;5050675;28;20672;-78
2022/11/08 08:24:22;;;;;;;13.40;10.27;;;;;;;;;;5050015;28;20604;-78
2022/11/08 08:26:48;;;;;;;13.30;10.13;;;;;;;;;;5050598;28;20205;-78
2022/11/08 08:29:15;;;;;;;12.67;9.40;;;;;;;;;;5050065;28;20210;-78
2022/11/08 08:31:42;;;;;;;16.03;11.13;;;;;;;;;;5049991;28;20640;-78
2022/11/08 08:34:10;;;;;;;13.87;8.90;;;;;;;;;;5049870;28;20205;-78
2022/11/08 08:36:36;;;;;;;11.70;9.10;;;;;;;;;;5050388;28;20197;-78
2022/11/08 08:39:03;;;;;;;12.70;9.23;;;;;;;;;;5050119;28;20206;-78
2022/11/08 08:41:30;;;;;;;9.77;7.60;;;;;;;;;;5049155;28;20201;-78
2022/11/08 08:43:57;;;;;;;10.37;8.40;;;;;;;;;;5046886;28;20233;-80
2022/11/08 08:46:25;;;;;;;15.37;9.40;;;;;;;;;;5046938;28;20216;-78
2022/11/08 08:48:52;;;;;;;13.97;7.83;;;;;;;;;;5049608;28;20202;-78
2022/11/08 08:51:20;;;;;;;11.70;9.20;;;;;;;;;;5050118;28;20292;-78
2022/11/08 08:53:47;;;;;;;10.67;9.27;;;;;;;;;;5050129;28;20229;-78
2022/11/08 08:56:13;;;;;;;17.90;7.97;;;;;;;;;;5050018;28;20210;-78
2022/11/08 08:58:40;;;;;;;13.77;9.00;;;;;;;;;;5049496;28;20201;-78
2022/11/08 09:01:08;;;;;;;9.67;6.73;;;;;;;;;;5049797;28;20244;-78
2022/11/08 09:03:36;;;;;;;11.00;7.77;;;;;;;;;;5050106;28;20241;-78
2022/11/08 09:06:03;;;;;;;9.33;7.00;;;;;;;;;;5052238;28;20202;-79
2022/11/08 09:08:31;;;;;;;10.67;7.47;;;;;;;;;;5053499;28;20861;-77
2022/11/08 09:10:59;;;;;;;8.37;6.63;;;;;;;;;;5053570;28;20209;-77
2022/11/08 09:13:29;;;;;;;8.30;6.53;;;;;;;;;;5053359;28;20267;-78
2022/11/08 09:15:56;;;;;;;9.03;6.70;;;;;;;;;;5053504;28;20198;-78
2022/11/08 09:18:23;;;;;;;9.60;8.27;;;;;;;;;;5053781;28;20642;-78
2022/11/08 09:20:50;;;;;;;9.43;7.83;;;;;;;;;;5053001;28;20206;-78
2022/11/08 09:23:17;;;;;;;15.20;9.60;;;;;;;;;;5053530;28;20225;-78
2022/11/08 09:25:45;;;;;;;13.97;8.30;;;;;;;;;;5053175;28;20677;-79
2022/11/08 09:28:11;;;;;;;15.37;7.87;;;;;;;;;;5039741;28;20213;-78
2022/11/08 09:30:38;;;;;;;19.77;11.03;;;;;;;;;;5053155;28;20205;-78
2022/11/08 09:33:06;;;;;;;8.33;7.33;;;;;;;;;;5053374;28;20666;-78
2022/11/08 09:35:32;;;;;;;7.40;6.67;;;;;;;;;;5053511;28;20273;-78
2022/11/08 09:37:59;;;;;;;9.70;7.17;;;;;;;;;;5053341;28;20216;-78
2022/11/08 09:40:31;;;;;;;15.80;11.63;;;;;;;;;;5052635;28;20231;-78
2022/11/08 09:43:07;;;;;;;13.40;8.80;;;;;;;;;;5053450;28;20666;-78
2022/11/08 09:45:40;;;;;;;14.33;8.40;;;;;;;;;;5053044;28;20195;-78
2022/11/08 09:48:14;;;;;;;10.47;8.57;;;;;;;;;;5053077;28;20209;-78
2022/11/08 09:50:43;;;;;;;16.17;10.57;;;;;;;;;;5052603;28;20201;-78
2022/11/08 09:53:17;;;;;;;12.70;9.93;;;;;;;;;;5053167;28;20225;-78
2022/11/08 09:55:46;;;;;;;10.53;7.50;;;;;;;;;;5052615;28;20632;-78
2022/11/08 09:58:23;;;;;;;9.40;6.33;;;;;;;;;;5053006;28;20283;-78
2022/11/08 10:00:52;;;;;;;10.73;8.27;;;;;;;;;;5052461;28;20733;-79
2022/11/08 10:03:22;;;;;;;9.63;6.63;;;;;;;;;;5052378;28;20229;-79
2022/11/08 10:06:00;;;;;;;9.40;8.00;;;;;;;;;;5053021;28;20701;-79
2022/11/08 10:08:30;;;;;;;9.67;7.83;;;;;;;;;;5052722;28;20206;-78
2022/11/08 10:11:15;;;;;;;8.57;7.60;;;;;;;;;;5052484;28;20711;-78
2022/11/08 10:13:55;;;;;;;11.13;7.00;;;;;;;;;;5052497;28;20635;-79
2022/11/08 10:16:29;;;;;;;9.00;7.30;;;;;;;;;;5051358;28;20251;-78
2022/11/08 10:19:05;;;;;;;10.60;8.40;;;;;;;;;;5052683;28;20201;-78
2022/11/08 10:21:46;;;;;;;10.53;8.37;;;;;;;;;;5039775;28;20288;-78
2022/11/08 10:24:16;;;;;;;8.30;7.47;;;;;;;;;;5051883;28;20229;-79
2022/11/08 10:26:45;;;;;;;9.77;8.50;;;;;;;;;;5051987;28;20694;-78
2022/11/08 10:29:20;;;;;;;11.50;8.40;;;;;;;;;;5052310;28;20206;-79
2022/11/08 10:31:48;;;;;;;10.40;7.43;;;;;;;;;;5052418;28;20201;-79
2022/11/08 10:34:17;;;;;;;8.63;7.37;;;;;;;;;;5051848;28;20209;-79
2022/11/08 10:36:45;;;;;;;13.03;7.87;;;;;;;;;;5051682;28;20206;-79
2022/11/08 10:39:15;;;;;;;12.07;8.50;;;;;;;;;;5052155;28;20197;-76
2022/11/08 10:41:45;;;;;;;11.40;8.60;;;;;;;;;;5052124;28;20198;-77
2022/11/08 10:44:15;;;;;;;11.37;8.07;;;;;;;;;;5052007;28;20235;-77
2022/11/08 10:46:44;;;;;;;19.00;9.90;;;;;;;;;;5051706;28;21683;-77
2022/11/08 10:49:14;;;;;;;11.67;9.67;;;;;;;;;;5051731;28;20666;-79
2022/11/08 10:51:41;;;;;;;10.50;8.23;;;;;;;;;;5051867;28;20336;-76
2022/11/08 10:54:08;;;;;;;11.97;8.43;;;;;;;;;;5051758;28;20221;-76
2022/11/08 10:56:54;;;;;;;10.40;7.83;;;;;;;;;;5051898;28;20229;-76
2022/11/08 10:59:31;;;;;;;13.53;8.77;;;;;;;;;;5051350;28;20198;-76
2022/11/08 11:01:59;;;;;;;8.70;7.13;;;;;;;;;;5051498;28;20198;-77
2022/11/08 11:04:27;;;;;;;7.37;6.67;;;;;;;;;;5051769;28;20222;-76
2022/11/08 11:06:54;;;;;;;11.60;7.80;;;;;;;;;;5051860;28;20198;-76
2022/11/08 11:09:22;;;;;;;11.20;7.93;;;;;;;;;;5050905;28;20200;-77
2022/11/08 11:11:56;;;;;;;10.13;7.70;;;;;;;;;;5051177;28;20201;-76
2022/11/08 11:14:23;;;;;;;12.63;7.03;;;;;;;;;;5050996;28;20205;-76
2022/11/08 11:16:57;;;;;;;9.00;7.57;;;;;;;;;;5051499;28;20206;-76
2022/11/08 11:19:24;;;;;;;14.90;7.93;;;;;;;;;;5050063;28;20213;-76
2022/11/08 11:21:55;;;;;;;13.60;8.50;;;;;;;;;;5045281;28;20324;-77
2022/11/08 11:24:23;;;;;;;9.80;7.93;;;;;;;;;;5050943;28;20230;-76
2022/11/08 11:27:00;;;;;;;13.10;7.27;;;;;;;;;;5051126;28;20289;-77
2022/11/08 11:29:29;;;;;;;11.93;8.10;;;;;;;;;;5051073;28;20215;-78
2022/11/08 11:31:57;;;;;;;10.23;8.60;;;;;;;;;;5051255;28;20202;-77
2022/11/08 11:34:33;;;;;;;9.07;8.17;;;;;;;;;;5050766;28;20207;-77
2022/11/08 11:37:06;;;;;;;10.50;8.37;;;;;;;;;;5051084;28;20199;-77
2022/11/08 11:39:35;;;;;;;10.20;8.57;;;;;;;;;;5050612;28;20295;-77
2022/11/08 11:42:04;;;;;;;11.80;9.00;;;;;;;;;;5051456;28;20216;-80
2022/11/08 11:44:36;;;;;;;17.20;8.83;;;;;;;;;;5050335;28;20714;-78
2022/11/08 11:47:08;;;;;;;11.40;8.57;;;;;;;;;;5050825;28;20247;-77
2022/11/08 11:49:35;;;;;;;11.93;7.93;;;;;;;;;;5050377;28;20209;-78
2022/11/08 11:52:02;;;;;;;11.17;9.00;;;;;;;;;;5050908;28;20602;-78
2022/11/08 11:54:31;;;;;;;10.60;8.47;;;;;;;;;;5050441;28;20229;-78
2022/11/08 11:57:03;;;;;;;14.47;8.87;;;;;;;;;;5050674;28;20213;-77
2022/11/08 11:59:52;;;;;;;9.50;8.47;;;;;;;;;;5050530;28;20566;-80
2022/11/08 12:02:46;;;;;;;12.47;8.20;;;;;;;;;;5050157;28;20198;-78
2022/11/08 12:05:29;;;;;;;14.43;8.70;;;;;;;;;;5050291;28;20198;-78
2022/11/08 12:08:04;;;;;;;13.37;7.97;;;;;;;;;;5037965;28;20205;-78
2022/11/08 12:10:44;;;;;;;12.87;8.40;;;;;;;;;;5049950;28;20209;-78
2022/11/08 12:13:17;;;;;;;15.53;9.63;;;;;;;;;;5050632;28;20596;-77
2022/11/08 12:15:48;;;;;;;14.63;8.67;;;;;;;;;;5050275;28;20263;-78
2022/11/08 12:18:40;;;;;;;15.87;10.83;;;;;;;;;;5050334;28;20205;-78
2022/11/08 12:21:10;;;;;;;9.93;7.77;;;;;;;;;;5047578;28;20201;-78
2022/11/08 12:23:52;;;;;;;12.27;9.23;;;;;;;;;;5050141;28;20220;-77
2022/11/08 12:26:23;;;;;;;13.93;8.67;;;;;;;;;;5050242;28;20194;-77
2022/11/08 12:29:01;;;;;;;12.90;9.37;;;;;;;;;;5050089;28;20216;-77
2022/11/08 12:31:30;;;;;;;11.80;8.70;;;;;;;;;;5050229;28;20201;-77
2022/11/08 12:34:19;;;;;;;16.47;10.40;;;;;;;;;;5050383;28;20765;-77
2022/11/08 12:36:52;;;;;;;13.83;8.83;;;;;;;;;;5037267;28;20210;-77
2022/11/08 12:39:29;;;;;;;104.20;56.00;;;;;;;;;;5049801;28;20608;-77
2022/11/08 12:42:16;;;;;;;43.50;30.30;;;;;;;;;;5054055;28;20202;-77
2022/11/08 12:45:16;;;;;;;13.53;10.40;;;;;;;;;;5054566;28;20286;-77
2022/11/08 12:47:46;;;;;;;10.77;9.03;;;;;;;;;;5054183;28;20209;-77
2022/11/08 12:50:21;;;;;;;14.17;10.67;;;;;;;;;;5053511;28;20211;-77
2022/11/08 12:53:02;;;;;;;18.87;11.83;;;;;;;;;;5054041;28;20209;-77
2022/11/08 12:55:33;;;;;;;13.00;11.27;;;;;;;;;;5054407;28;20200;-77
2022/11/08 12:58:00;;;;;;;16.00;11.50;;;;;;;;;;5054019;28;20211;-77
2022/11/08 13:00:28;;;;;;;23.33;12.67;;;;;;;;;;5053161;28;20679;-77
2022/11/08 13:03:00;;;;;;;24.50;16.53;;;;;;;;;;5053969;28;20216;-78
2022/11/08 13:05:32;;;;;;;23.13;15.83;;;;;;;;;;5053531;28;20253;-78
2022/11/08 13:08:06;;;;;;;19.43;12.00;;;;;;;;;;5053790;28;20207;-77
2022/11/08 13:10:37;;;;;;;20.00;12.83;;;;;;;;;;5054002;28;20204;-78
2022/11/08 13:13:16;;;;;;;16.90;13.00;;;;;;;;;;5053670;28;20633;-79
2022/11/08 13:16:09;;;;;;;17.20;11.43;;;;;;;;;;5053471;28;20216;-77
2022/11/08 13:18:36;;;;;;;15.77;11.60;;;;;;;;;;5053402;28;20673;-78
2022/11/08 13:24:33;;;;;;;20.13;11.90;;;;;;;;;;5075293;27;21196;-78
2022/11/08 13:27:32;;;;;;;29.43;20.17;;;;;;;;;;5067956;28;20291;-79
2022/11/08 13:30:04;;;;;;;40.63;24.93;;;;;;;;;;5054432;28;20208;-79
2022/11/08 13:32:43;;;;;;;31.33;22.27;;;;;;;;;;5067917;28;20576;-78
2022/11/08 13:35:16;;;;;;;26.40;19.90;;;;;;;;;;5067599;28;20211;-79
2022/11/08 13:37:53;;;;;;;24.80;18.07;;;;;;;;;;5066064;28;20614;-78
2022/11/08 13:40:48;;;;;;;22.70;17.40;;;;;;;;;;5067083;28;20591;-78
2022/11/08 13:43:24;;;;;;;29.87;17.37;;;;;;;;;;5067249;28;20217;-78
2022/11/08 13:45:51;;;;;;;23.73;16.93;;;;;;;;;;5067351;28;20213;-78
2022/11/08 13:48:41;;;;;;;23.33;15.93;;;;;;;;;;5067352;28;20273;-78
2022/11/08 13:51:28;;;;;;;27.03;15.30;;;;;;;;;;5050539;28;20298;-78
2022/11/08 13:53:57;;;;;;;20.23;16.10;;;;;;;;;;5067353;28;20205;-78
2022/11/08 13:56:50;;;;;;;23.27;16.10;;;;;;;;;;5066868;28;20202;-78
2022/11/08 13:59:53;;;;;;;30.67;16.50;;;;;;;;;;5047542;28;20206;-78
2022/11/08 14:02:39;;;;;;;24.93;16.83;;;;;;;;;;5064290;28;20231;-78
2022/11/08 14:05:25;;;;;;;31.40;17.23;;;;;;;;;;5066463;28;20209;-78
2022/11/08 14:08:16;;;;;;;26.93;16.60;;;;;;;;;;5067250;28;20746;-78
2022/11/08 14:11:24;;;;;;;25.00;17.90;;;;;;;;;;5066732;28;20216;-78
2022/11/08 14:14:23;;;;;;;34.83;18.60;;;;;;;;;;5067063;28;20266;-79
2022/11/08 14:17:08;;;;;;;26.90;18.60;;;;;;;;;;5034499;28;20202;-78
2022/11/08 14:19:37;;;;;;;27.20;18.83;;;;;;;;;;5065682;28;20197;-78
2022/11/08 14:22:12;;;;;;;27.13;20.70;;;;;;;;;;5066318;28;20242;-78
2022/11/08 14:24:39;;;;;;;32.30;22.43;;;;;;;;;;5066103;28;20603;-79
2022/11/08 14:27:06;;;;;;;28.03;18.50;;;;;;;;;;5066833;28;20202;-78
2022/11/08 14:29:34;;;;;;;37.83;20.20;;;;;;;;;;5066494;28;20232;-78
2022/11/08 14:32:04;;;;;;;31.37;19.97;;;;;;;;;;5066563;28;20623;-78
2022/11/08 14:34:33;;;;;;;29.50;20.00;;;;;;;;;;5057140;28;20206;-78
2022/11/08 14:37:00;;;;;;;37.97;24.33;;;;;;;;;;5053398;28;20206;-78
2022/11/08 14:39:30;;;;;;;36.97;21.50;;;;;;;;;;5052850;28;20206;-78
2022/11/08 14:42:00;;;;;;;44.10;25.23;;;;;;;;;;5052899;28;20291;-78
2022/11/08 14:44:27;;;;;;;32.20;21.57;;;;;;;;;;5052682;28;20680;-78
2022/11/08 14:46:55;;;;;;;32.37;19.60;;;;;;;;;;5052573;28;20623;-78
2022/11/08 14:49:29;;;;;;;29.03;20.90;;;;;;;;;;5052879;28;20206;-78
2022/11/08 14:52:04;;;;;;;29.20;19.70;;;;;;;;;;5052595;28;20207;-79
2022/11/08 14:54:38;;;;;;;33.50;19.60;;;;;;;;;;5052527;28;20202;-78
2022/11/08 14:57:05;;;;;;;34.77;19.73;;;;;;;;;;5052798;28;20286;-79
2022/11/08 14:59:31;;;;;;;51.67;24.97;;;;;;;;;;5052412;28;20207;-79
2022/11/08 15:02:00;;;;;;;35.40;21.87;;;;;;;;;;5052576;28;20210;-79
2022/11/08 15:04:27;;;;;;;56.03;29.97;;;;;;;;;;5052658;28;20210;-79
2022/11/08 15:06:55;;;;;;;41.77;25.90;;;;;;;;;;5052886;28;20217;-79
2022/11/08 15:09:25;;;;;;;56.03;35.40;;;;;;;;;;5052330;28;20206;-79
2022/11/08 15:11:55;;;;;;;43.37;27.53;;;;;;;;;;5052170;28;20665;-79
2022/11/08 15:14:23;;;;;;;46.13;25.17;;;;;;;;;;5052658;28;20198;-79